sensor_id;sensor_type;location;lat;lon;timestamp;P1;durP1;ratioP1;P2;durP2;ratioP2
37349;SDS011;23231;52.358;4.926;2023-02-15T00:02:15;85.10;;;41.27;;
37349;SDS011;23231;52.358;4.926;2023-02-15T00:07:16;85.37;;;40.57;;
37349;SDS011;23231;52.358;4.926;2023-02-15T00:12:17;94.20;;;42.17;;
37349;SDS011;23231;52.358;4.926;2023-02-15T00:17:18;85.18;;;40.47;;
37349;SDS011;23231;52.358;4.926;2023-02-15T00:22:18;85.40;;;39.07;;
37349;SDS011;23231;52.358;4.926;2023-02-15T00:27:19;85.63;;;42.90;;
37349;SDS011;23231;52.358;4.926;2023-02-15T00:32:20;85.00;;;40.67;;
37349;SDS011;23231;52.358;4.926;2023-02-15T00:37:20;79.37;;;39.47;;
37349;SDS011;23231;52.358;4.926;2023-02-15T00:42:20;93.40;;;41.43;;
37349;SDS011;23231;52.358;4.926;2023-02-15T00:47:21;86.03;;;40.57;;
37349;SDS011;23231;52.358;4.926;2023-02-15T00:52:21;76.43;;;38.13;;
37349;SDS011;23231;52.358;4.926;2023-02-15T00:57:22;80.47;;;38.73;;
37349;SDS011;23231;52.358;4.926;2023-02-15T01:02:22;80.27;;;37.73;;
37349;SDS011;23231;52.358;4.926;2023-02-15T01:07:22;78.50;;;37.73;;
37349;SDS011;23231;52.358;4.926;2023-02-15T01:12:23;79.60;;;37.80;;
37349;SDS011;23231;52.358;4.926;2023-02-15T01:17:23;77.70;;;35.77;;
37349;SDS011;23231;52.358;4.926;2023-02-15T01:22:24;72.70;;;34.57;;
37349;SDS011;23231;52.358;4.926;2023-02-15T01:27:24;70.47;;;34.33;;
37349;SDS011;23231;52.358;4.926;2023-02-15T01:32:25;66.67;;;32.70;;
37349;SDS011;23231;52.358;4.926;2023-02-15T01:37:26;76.97;;;34.70;;
37349;SDS011;23231;52.358;4.926;2023-02-15T01:42:28;63.80;;;32.53;;
37349;SDS011;23231;52.358;4.926;2023-02-15T01:52:32;64.40;;;31.73;;
37349;SDS011;23231;52.358;4.926;2023-02-15T01:57:35;63.13;;;31.03;;
37349;SDS011;23231;52.358;4.926;2023-02-15T02:02:35;68.33;;;32.47;;
37349;SDS011;23231;52.358;4.926;2023-02-15T02:07:40;75.00;;;34.20;;
37349;SDS011;23231;52.358;4.926;2023-02-15T02:12:43;71.23;;;33.93;;
37349;SDS011;23231;52.358;4.926;2023-02-15T02:18:08;64.10;;;31.57;;
37349;SDS011;23231;52.358;4.926;2023-02-15T02:44:46;64.60;;;31.50;;
37349;SDS011;23231;52.358;4.926;2023-02-15T02:49:51;62.67;;;30.57;;
37349;SDS011;23231;52.358;4.926;2023-02-15T02:54:53;63.03;;;32.13;;
37349;SDS011;23231;52.358;4.926;2023-02-15T02:59:54;62.10;;;30.50;;
37349;SDS011;23231;52.358;4.926;2023-02-15T03:04:59;66.57;;;31.50;;
37349;SDS011;23231;52.358;4.926;2023-02-15T03:10:03;63.05;;;31.60;;
37349;SDS011;23231;52.358;4.926;2023-02-15T03:15:10;64.13;;;32.53;;
37349;SDS011;23231;52.358;4.926;2023-02-15T03:20:18;56.07;;;29.27;;
37349;SDS011;23231;52.358;4.926;2023-02-15T03:25:25;65.33;;;32.13;;
37349;SDS011;23231;52.358;4.926;2023-02-15T03:30:34;71.50;;;34.17;;
37349;SDS011;23231;52.358;4.926;2023-02-15T03:35:43;64.43;;;30.47;;
37349;SDS011;23231;52.358;4.926;2023-02-15T03:40:48;73.17;;;33.00;;
37349;SDS011;23231;52.358;4.926;2023-02-15T03:46:08;73.50;;;33.27;;
37349;SDS011;23231;52.358;4.926;2023-02-15T03:51:22;59.40;;;30.57;;
37349;SDS011;23231;52.358;4.926;2023-02-15T03:56:38;67.47;;;30.33;;
37349;SDS011;23231;52.358;4.926;2023-02-15T04:06:57;65.47;;;31.85;;
37349;SDS011;23231;52.358;4.926;2023-02-15T04:11:57;60.80;;;29.80;;
37349;SDS011;23231;52.358;4.926;2023-02-15T04:16:58;66.70;;;31.20;;
37349;SDS011;23231;52.358;4.926;2023-02-15T04:21:58;59.63;;;28.87;;
37349;SDS011;23231;52.358;4.926;2023-02-15T04:27:17;60.10;;;30.30;;
37349;SDS011;23231;52.358;4.926;2023-02-15T04:32:17;61.27;;;29.13;;
37349;SDS011;23231;52.358;4.926;2023-02-15T04:37:18;61.20;;;29.40;;
37349;SDS011;23231;52.358;4.926;2023-02-15T04:42:18;61.07;;;27.93;;
37349;SDS011;23231;52.358;4.926;2023-02-15T04:47:19;57.13;;;29.03;;
37349;SDS011;23231;52.358;4.926;2023-02-15T04:52:19;61.63;;;28.67;;
37349;SDS011;23231;52.358;4.926;2023-02-15T04:57:20;63.17;;;29.17;;
37349;SDS011;23231;52.358;4.926;2023-02-15T05:02:20;69.93;;;31.27;;
37349;SDS011;23231;52.358;4.926;2023-02-15T05:07:20;70.17;;;31.20;;
37349;SDS011;23231;52.358;4.926;2023-02-15T05:12:21;65.07;;;30.10;;
37349;SDS011;23231;52.358;4.926;2023-02-15T05:17:21;63.87;;;30.17;;
37349;SDS011;23231;52.358;4.926;2023-02-15T05:22:22;62.03;;;29.37;;
37349;SDS011;23231;52.358;4.926;2023-02-15T05:27:22;66.10;;;29.43;;
37349;SDS011;23231;52.358;4.926;2023-02-15T05:32:41;55.53;;;28.50;;
37349;SDS011;23231;52.358;4.926;2023-02-15T05:37:41;56.47;;;27.47;;
37349;SDS011;23231;52.358;4.926;2023-02-15T05:42:42;58.93;;;28.00;;
37349;SDS011;23231;52.358;4.926;2023-02-15T05:47:42;62.10;;;28.97;;
37349;SDS011;23231;52.358;4.926;2023-02-15T05:52:42;62.20;;;28.07;;
37349;SDS011;23231;52.358;4.926;2023-02-15T05:57:43;59.93;;;27.60;;
37349;SDS011;23231;52.358;4.926;2023-02-15T06:02:43;61.23;;;28.63;;
37349;SDS011;23231;52.358;4.926;2023-02-15T06:07:44;62.40;;;27.90;;
37349;SDS011;23231;52.358;4.926;2023-02-15T06:12:44;63.33;;;28.67;;
37349;SDS011;23231;52.358;4.926;2023-02-15T06:17:45;73.47;;;32.07;;
37349;SDS011;23231;52.358;4.926;2023-02-15T06:22:45;71.70;;;31.07;;
37349;SDS011;23231;52.358;4.926;2023-02-15T06:27:46;65.33;;;29.73;;
37349;SDS011;23231;52.358;4.926;2023-02-15T06:32:47;64.00;;;29.60;;
37349;SDS011;23231;52.358;4.926;2023-02-15T06:37:47;68.10;;;29.73;;
37349;SDS011;23231;52.358;4.926;2023-02-15T06:42:48;78.43;;;30.23;;
37349;SDS011;23231;52.358;4.926;2023-02-15T06:47:48;79.13;;;29.57;;
37349;SDS011;23231;52.358;4.926;2023-02-15T06:52:48;60.93;;;27.43;;
37349;SDS011;23231;52.358;4.926;2023-02-15T06:57:49;64.30;;;29.33;;
37349;SDS011;23231;52.358;4.926;2023-02-15T07:02:53;67.27;;;29.03;;
37349;SDS011;23231;52.358;4.926;2023-02-15T07:07:58;67.10;;;30.60;;
37349;SDS011;23231;52.358;4.926;2023-02-15T07:12:59;69.07;;;31.27;;
37349;SDS011;23231;52.358;4.926;2023-02-15T07:17:59;65.00;;;30.27;;
37349;SDS011;23231;52.358;4.926;2023-02-15T07:22:59;61.50;;;28.57;;
37349;SDS011;23231;52.358;4.926;2023-02-15T07:28:00;71.67;;;30.23;;
37349;SDS011;23231;52.358;4.926;2023-02-15T07:33:02;64.10;;;30.83;;
37349;SDS011;23231;52.358;4.926;2023-02-15T07:38:21;62.53;;;29.77;;
37349;SDS011;23231;52.358;4.926;2023-02-15T07:43:22;59.60;;;27.97;;
37349;SDS011;23231;52.358;4.926;2023-02-15T07:48:22;48.83;;;26.73;;
37349;SDS011;23231;52.358;4.926;2023-02-15T07:53:23;60.53;;;29.87;;
37349;SDS011;23231;52.358;4.926;2023-02-15T07:58:23;63.27;;;30.00;;
37349;SDS011;23231;52.358;4.926;2023-02-15T08:03:43;72.17;;;30.13;;
37349;SDS011;23231;52.358;4.926;2023-02-15T08:08:44;61.53;;;29.90;;
37349;SDS011;23231;52.358;4.926;2023-02-15T08:13:45;58.33;;;29.80;;
37349;SDS011;23231;52.358;4.926;2023-02-15T08:18:55;60.20;;;28.83;;
37349;SDS011;23231;52.358;4.926;2023-02-15T08:23:57;59.13;;;29.40;;
37349;SDS011;23231;52.358;4.926;2023-02-15T08:28:58;63.50;;;32.30;;
37349;SDS011;23231;52.358;4.926;2023-02-15T08:33:59;65.17;;;30.63;;
37349;SDS011;23231;52.358;4.926;2023-02-15T08:39:00;68.33;;;32.47;;
37349;SDS011;23231;52.358;4.926;2023-02-15T08:44:04;65.70;;;32.70;;
37349;SDS011;23231;52.358;4.926;2023-02-15T08:49:06;68.00;;;33.57;;
37349;SDS011;23231;52.358;4.926;2023-02-15T08:54:08;68.60;;;33.10;;
37349;SDS011;23231;52.358;4.926;2023-02-15T08:59:11;66.83;;;33.10;;
37349;SDS011;23231;52.358;4.926;2023-02-15T09:04:30;62.37;;;32.30;;
37349;SDS011;23231;52.358;4.926;2023-02-15T09:09:31;65.03;;;32.95;;
37349;SDS011;23231;52.358;4.926;2023-02-15T09:14:32;63.57;;;31.83;;
37349;SDS011;23231;52.358;4.926;2023-02-15T09:19:33;60.65;;;31.80;;
37349;SDS011;23231;52.358;4.926;2023-02-15T09:24:33;63.43;;;34.47;;
37349;SDS011;23231;52.358;4.926;2023-02-15T09:29:34;66.70;;;33.25;;
37349;SDS011;23231;52.358;4.926;2023-02-15T09:34:34;66.00;;;31.85;;
37349;SDS011;23231;52.358;4.926;2023-02-15T09:39:35;63.17;;;31.23;;
37349;SDS011;23231;52.358;4.926;2023-02-15T10:01:09;55.42;;;30.60;;
37349;SDS011;23231;52.358;4.926;2023-02-15T10:22:27;56.70;;;30.77;;
37349;SDS011;23231;52.358;4.926;2023-02-15T10:27:51;59.22;;;32.42;;
37349;SDS011;23231;52.358;4.926;2023-02-15T10:32:59;57.30;;;30.80;;
37349;SDS011;23231;52.358;4.926;2023-02-15T10:54:20;54.08;;;30.10;;
37349;SDS011;23231;52.358;4.926;2023-02-15T11:04:44;51.38;;;27.60;;
37349;SDS011;23231;52.358;4.926;2023-02-15T11:10:02;51.13;;;28.45;;
37349;SDS011;23231;52.358;4.926;2023-02-15T11:25:25;52.67;;;28.45;;
37349;SDS011;23231;52.358;4.926;2023-02-15T11:30:43;53.38;;;27.90;;
37349;SDS011;23231;52.358;4.926;2023-02-15T11:35:48;55.30;;;29.48;;
37349;SDS011;23231;52.358;4.926;2023-02-15T11:40:59;52.90;;;27.90;;
37349;SDS011;23231;52.358;4.926;2023-02-15T11:46:05;50.58;;;28.73;;
37349;SDS011;23231;52.358;4.926;2023-02-15T11:51:08;50.20;;;28.52;;
37349;SDS011;23231;52.358;4.926;2023-02-15T11:56:16;50.33;;;29.60;;
37349;SDS011;23231;52.358;4.926;2023-02-15T12:01:20;51.90;;;29.42;;
37349;SDS011;23231;52.358;4.926;2023-02-15T12:06:44;51.47;;;29.77;;
37349;SDS011;23231;52.358;4.926;2023-02-15T12:11:48;53.20;;;30.25;;
37349;SDS011;23231;52.358;4.926;2023-02-15T12:16:49;51.50;;;30.38;;
37349;SDS011;23231;52.358;4.926;2023-02-15T12:21:51;55.83;;;32.15;;
37349;SDS011;23231;52.358;4.926;2023-02-15T12:32:18;54.97;;;31.52;;
37349;SDS011;23231;52.358;4.926;2023-02-15T12:37:31;53.60;;;32.17;;
37349;SDS011;23231;52.358;4.926;2023-02-15T12:42:42;55.78;;;32.40;;
37349;SDS011;23231;52.358;4.926;2023-02-15T12:47:44;58.97;;;32.28;;
37349;SDS011;23231;52.358;4.926;2023-02-15T12:52:48;54.47;;;31.13;;
37349;SDS011;23231;52.358;4.926;2023-02-15T12:58:04;52.47;;;31.05;;
37349;SDS011;23231;52.358;4.926;2023-02-15T13:03:15;53.33;;;32.55;;
37349;SDS011;23231;52.358;4.926;2023-02-15T13:08:19;56.00;;;32.22;;
37349;SDS011;23231;52.358;4.926;2023-02-15T13:13:27;54.03;;;33.45;;
37349;SDS011;23231;52.358;4.926;2023-02-15T13:23:34;58.08;;;33.80;;
37349;SDS011;23231;52.358;4.926;2023-02-15T13:28:42;57.33;;;33.40;;
37349;SDS011;23231;52.358;4.926;2023-02-15T13:33:56;58.63;;;33.10;;
37349;SDS011;23231;52.358;4.926;2023-02-15T13:39:06;57.65;;;32.72;;
37349;SDS011;23231;52.358;4.926;2023-02-15T13:44:13;61.22;;;34.00;;
37349;SDS011;23231;52.358;4.926;2023-02-15T13:54:49;65.15;;;36.03;;
37349;SDS011;23231;52.358;4.926;2023-02-15T14:00:01;60.35;;;34.90;;
37349;SDS011;23231;52.358;4.926;2023-02-15T14:05:15;62.78;;;35.95;;
37349;SDS011;23231;52.358;4.926;2023-02-15T14:15:47;61.92;;;35.42;;
37349;SDS011;23231;52.358;4.926;2023-02-15T14:31:38;58.42;;;34.50;;
37349;SDS011;23231;52.358;4.926;2023-02-15T14:36:41;57.72;;;33.72;;
37349;SDS011;23231;52.358;4.926;2023-02-15T14:41:49;57.22;;;34.65;;
37349;SDS011;23231;52.358;4.926;2023-02-15T14:52:04;56.97;;;33.85;;
37349;SDS011;23231;52.358;4.926;2023-02-15T15:07:17;60.63;;;33.45;;
37349;SDS011;23231;52.358;4.926;2023-02-15T15:22:34;57.88;;;31.83;;
37349;SDS011;23231;52.358;4.926;2023-02-15T15:27:42;53.10;;;31.05;;
37349;SDS011;23231;52.358;4.926;2023-02-15T15:53:28;61.50;;;34.00;;
37349;SDS011;23231;52.358;4.926;2023-02-15T15:58:31;59.45;;;31.17;;
37349;SDS011;23231;52.358;4.926;2023-02-15T16:03:33;56.88;;;31.58;;
37349;SDS011;23231;52.358;4.926;2023-02-15T16:08:35;58.17;;;31.92;;
37349;SDS011;23231;52.358;4.926;2023-02-15T16:13:36;63.00;;;33.03;;
37349;SDS011;23231;52.358;4.926;2023-02-15T16:18:42;54.75;;;31.40;;
37349;SDS011;23231;52.358;4.926;2023-02-15T16:29:23;59.55;;;32.85;;
37349;SDS011;23231;52.358;4.926;2023-02-15T16:34:27;58.70;;;31.50;;
37349;SDS011;23231;52.358;4.926;2023-02-15T16:39:28;57.03;;;32.15;;
37349;SDS011;23231;52.358;4.926;2023-02-15T16:44:28;59.47;;;32.70;;
37349;SDS011;23231;52.358;4.926;2023-02-15T16:49:32;64.45;;;33.45;;
37349;SDS011;23231;52.358;4.926;2023-02-15T16:54:34;59.75;;;31.80;;
37349;SDS011;23231;52.358;4.926;2023-02-15T16:59:39;69.50;;;35.33;;
37349;SDS011;23231;52.358;4.926;2023-02-15T17:04:43;66.97;;;32.58;;
37349;SDS011;23231;52.358;4.926;2023-02-15T17:09:50;65.57;;;33.28;;
37349;SDS011;23231;52.358;4.926;2023-02-15T17:14:53;65.90;;;35.17;;
37349;SDS011;23231;52.358;4.926;2023-02-15T17:19:54;60.60;;;32.97;;
37349;SDS011;23231;52.358;4.926;2023-02-15T17:24:59;67.90;;;34.22;;
37349;SDS011;23231;52.358;4.926;2023-02-15T17:30:11;66.95;;;34.97;;
37349;SDS011;23231;52.358;4.926;2023-02-15T17:35:24;65.63;;;35.58;;
37349;SDS011;23231;52.358;4.926;2023-02-15T17:40:31;71.32;;;35.95;;
37349;SDS011;23231;52.358;4.926;2023-02-15T17:45:36;66.97;;;35.63;;
37349;SDS011;23231;52.358;4.926;2023-02-15T17:50:40;67.47;;;37.33;;
37349;SDS011;23231;52.358;4.926;2023-02-15T17:55:40;69.60;;;35.75;;
37349;SDS011;23231;52.358;4.926;2023-02-15T18:00:43;68.85;;;36.78;;
37349;SDS011;23231;52.358;4.926;2023-02-15T18:06:04;68.10;;;35.58;;
37349;SDS011;23231;52.358;4.926;2023-02-15T18:11:23;69.82;;;35.03;;
37349;SDS011;23231;52.358;4.926;2023-02-15T18:16:39;75.30;;;36.47;;
37349;SDS011;23231;52.358;4.926;2023-02-15T18:21:42;66.25;;;34.78;;
37349;SDS011;23231;52.358;4.926;2023-02-15T18:26:43;64.78;;;36.22;;
37349;SDS011;23231;52.358;4.926;2023-02-15T18:31:45;70.38;;;34.88;;
37349;SDS011;23231;52.358;4.926;2023-02-15T18:36:47;63.70;;;35.30;;
37349;SDS011;23231;52.358;4.926;2023-02-15T18:41:48;74.50;;;34.83;;
37349;SDS011;23231;52.358;4.926;2023-02-15T18:46:48;64.80;;;32.60;;
37349;SDS011;23231;52.358;4.926;2023-02-15T18:51:48;68.47;;;34.42;;
37349;SDS011;23231;52.358;4.926;2023-02-15T18:56:56;65.68;;;34.92;;
37349;SDS011;23231;52.358;4.926;2023-02-15T19:01:57;66.40;;;35.90;;
37349;SDS011;23231;52.358;4.926;2023-02-15T19:06:59;69.05;;;34.60;;
37349;SDS011;23231;52.358;4.926;2023-02-15T19:11:59;65.78;;;34.67;;
37349;SDS011;23231;52.358;4.926;2023-02-15T19:17:00;67.75;;;34.42;;
37349;SDS011;23231;52.358;4.926;2023-02-15T19:22:00;68.07;;;34.72;;
37349;SDS011;23231;52.358;4.926;2023-02-15T19:27:01;74.68;;;35.10;;
37349;SDS011;23231;52.358;4.926;2023-02-15T19:32:02;66.13;;;33.42;;
37349;SDS011;23231;52.358;4.926;2023-02-15T19:37:03;69.22;;;34.42;;
37349;SDS011;23231;52.358;4.926;2023-02-15T19:42:05;68.70;;;35.60;;
37349;SDS011;23231;52.358;4.926;2023-02-15T19:47:08;70.22;;;34.97;;
37349;SDS011;23231;52.358;4.926;2023-02-15T19:52:16;70.65;;;35.38;;
37349;SDS011;23231;52.358;4.926;2023-02-15T19:57:18;64.40;;;33.50;;
37349;SDS011;23231;52.358;4.926;2023-02-15T20:02:19;67.05;;;34.08;;
37349;SDS011;23231;52.358;4.926;2023-02-15T20:07:21;68.05;;;35.30;;
37349;SDS011;23231;52.358;4.926;2023-02-15T20:12:26;69.53;;;33.75;;
37349;SDS011;23231;52.358;4.926;2023-02-15T20:17:28;67.50;;;33.58;;
37349;SDS011;23231;52.358;4.926;2023-02-15T20:22:28;65.05;;;32.92;;
37349;SDS011;23231;52.358;4.926;2023-02-15T20:27:29;64.72;;;33.80;;
37349;SDS011;23231;52.358;4.926;2023-02-15T20:32:29;63.45;;;32.65;;
37349;SDS011;23231;52.358;4.926;2023-02-15T20:37:30;62.65;;;31.70;;
37349;SDS011;23231;52.358;4.926;2023-02-15T20:42:30;65.82;;;32.67;;
37349;SDS011;23231;52.358;4.926;2023-02-15T20:47:31;63.83;;;33.35;;
37349;SDS011;23231;52.358;4.926;2023-02-15T20:52:31;65.50;;;34.50;;
37349;SDS011;23231;52.358;4.926;2023-02-15T20:57:32;65.75;;;33.20;;
37349;SDS011;23231;52.358;4.926;2023-02-15T21:02:32;61.55;;;32.67;;
37349;SDS011;23231;52.358;4.926;2023-02-15T21:07:33;70.30;;;33.33;;
37349;SDS011;23231;52.358;4.926;2023-02-15T21:12:33;59.88;;;32.55;;
37349;SDS011;23231;52.358;4.926;2023-02-15T21:17:33;62.30;;;32.60;;
37349;SDS011;23231;52.358;4.926;2023-02-15T21:22:34;58.63;;;31.65;;
37349;SDS011;23231;52.358;4.926;2023-02-15T21:27:34;64.18;;;32.45;;
37349;SDS011;23231;52.358;4.926;2023-02-15T21:32:35;62.55;;;31.73;;
37349;SDS011;23231;52.358;4.926;2023-02-15T21:37:36;58.08;;;30.90;;
37349;SDS011;23231;52.358;4.926;2023-02-15T21:42:38;68.35;;;31.70;;
37349;SDS011;23231;52.358;4.926;2023-02-15T21:47:58;63.25;;;32.10;;
37349;SDS011;23231;52.358;4.926;2023-02-15T21:52:58;63.15;;;32.75;;
37349;SDS011;23231;52.358;4.926;2023-02-15T21:57:59;58.53;;;32.10;;
37349;SDS011;23231;52.358;4.926;2023-02-15T22:03:00;59.80;;;30.88;;
37349;SDS011;23231;52.358;4.926;2023-02-15T22:08:01;66.20;;;32.67;;
37349;SDS011;23231;52.358;4.926;2023-02-15T22:13:01;59.13;;;32.50;;
37349;SDS011;23231;52.358;4.926;2023-02-15T22:18:02;64.22;;;31.48;;
37349;SDS011;23231;52.358;4.926;2023-02-15T22:23:03;59.80;;;31.05;;
37349;SDS011;23231;52.358;4.926;2023-02-15T22:28:04;68.32;;;32.53;;
37349;SDS011;23231;52.358;4.926;2023-02-15T22:33:04;63.40;;;32.42;;
37349;SDS011;23231;52.358;4.926;2023-02-15T22:38:05;64.78;;;32.55;;
37349;SDS011;23231;52.358;4.926;2023-02-15T22:43:05;62.20;;;30.80;;
37349;SDS011;23231;52.358;4.926;2023-02-15T22:48:07;68.88;;;32.30;;
37349;SDS011;23231;52.358;4.926;2023-02-15T22:53:08;62.42;;;33.03;;
37349;SDS011;23231;52.358;4.926;2023-02-15T22:58:11;62.08;;;32.45;;
37349;SDS011;23231;52.358;4.926;2023-02-15T23:03:34;71.27;;;33.30;;
37349;SDS011;23231;52.358;4.926;2023-02-15T23:08:35;68.15;;;34.38;;
37349;SDS011;23231;52.358;4.926;2023-02-15T23:13:35;63.40;;;32.67;;
37349;SDS011;23231;52.358;4.926;2023-02-15T23:18:37;65.20;;;33.65;;
37349;SDS011;23231;52.358;4.926;2023-02-15T23:23:43;67.45;;;32.25;;
37349;SDS011;23231;52.358;4.926;2023-02-15T23:28:45;68.45;;;34.42;;
37349;SDS011;23231;52.358;4.926;2023-02-15T23:33:47;67.85;;;32.72;;
37349;SDS011;23231;52.358;4.926;2023-02-15T23:38:48;67.22;;;32.90;;
37349;SDS011;23231;52.358;4.926;2023-02-15T23:43:58;65.67;;;32.70;;
37349;SDS011;23231;52.358;4.926;2023-02-15T23:49:00;68.55;;;33.35;;
37349;SDS011;23231;52.358;4.926;2023-02-15T23:54:00;65.32;;;34.45;;
37349;SDS011;23231;52.358;4.926;2023-02-15T23:59:01;66.73;;;32.17;;
